Time;durP1;ratioP1;P1;durP2;ratioP2;P2;SDS_P1;SDS_P2;PMS_P1;PMS_P2;Temp;Humidity;BMP_temperature;BMP_pressure;BME280_temperature;BME280_humidity;BME280_pressure;Samples;Min_cycle;Max_cycle;Signal;HPM_P1;HPM_P2
2023/03/22 00:01:07;;;;;;;;;2.00;2.00;;;;;;;;5086705;27;62000;-80
2023/03/22 00:03:33;;;;;;;;;2.75;0.50;;;;;;;;5104768;27;62168;-80
2023/03/22 00:05:58;;;;;;;;;2.75;2.00;;;;;;;;5086412;27;65022;-80
2023/03/22 00:08:23;;;;;;;;;2.00;2.00;;;;;;;;5104944;27;61810;-80
2023/03/22 00:10:55;;;;;;;;;5.00;1.00;;;;;;;;5085204;27;62062;-80
2023/03/22 00:13:21;;;;;;;;;1.50;1.25;;;;;;;;5066565;28;61899;-80
2023/03/22 00:15:47;;;;;;;;;2.00;0.25;;;;;;;;5083818;28;61733;-80
2023/03/22 00:18:14;;;;;;;;;1.75;1.75;;;;;;;;5087805;27;61748;-80
2023/03/22 00:20:45;;;;;;;;;1.00;1.00;;;;;;;;5103396;27;61925;-80
2023/03/22 00:23:11;;;;;;;;;2.50;1.50;;;;;;;;5105537;27;62056;-79
2023/03/22 00:25:36;;;;;;;;;1.00;1.00;;;;;;;;5102580;27;63330;-80
2023/03/22 00:28:01;;;;;;;;;5.50;1.75;;;;;;;;5103696;27;61738;-80
2023/03/22 00:30:26;;;;;;;;;1.00;1.00;;;;;;;;5104938;27;61715;-80
2023/03/22 00:32:52;;;;;;;;;3.75;2.50;;;;;;;;5103172;27;61754;-79
2023/03/22 00:35:18;;;;;;;;;4.75;1.50;;;;;;;;5102825;27;63327;-80
2023/03/22 00:37:44;;;;;;;;;2.50;2.50;;;;;;;;5102234;27;61796;-80
2023/03/22 00:40:12;;;;;;;;;2.00;0.50;;;;;;;;5103032;27;61831;-80
2023/03/22 00:42:39;;;;;;;;;1.50;1.50;;;;;;;;5103752;27;61929;-80
2023/03/22 00:45:05;;;;;;;;;1.50;1.00;;;;;;;;5102606;27;64005;-80
2023/03/22 00:47:30;;;;;;;;;3.00;1.50;;;;;;;;5104409;27;61912;-80
2023/03/22 00:49:56;;;;;;;;;1.00;1.00;;;;;;;;5102806;27;61759;-80
2023/03/22 00:52:21;;;;;;;;;4.25;1.50;;;;;;;;5105042;27;61936;-80
2023/03/22 00:54:46;;;;;;;;;1.00;0.75;;;;;;;;5101989;27;63563;-80
2023/03/22 00:57:13;;;;;;;;;1.00;1.00;;;;;;;;5103220;27;61973;-80
2023/03/22 00:59:38;;;;;;;;;2.00;1.75;;;;;;;;5102845;27;61875;-79
2023/03/22 01:02:05;;;;;;;;;2.00;2.00;;;;;;;;5104167;27;62021;-80
2023/03/22 01:04:30;;;;;;;;;1.00;1.00;;;;;;;;5102344;27;64719;-80
2023/03/22 01:07:00;;;;;;;;;0.50;0.50;;;;;;;;5102796;27;61918;-79
2023/03/22 01:09:27;;;;;;;;;5.50;1.00;;;;;;;;5104226;27;61740;-80
2023/03/22 01:11:53;;;;;;;;;1.00;1.00;;;;;;;;5103097;27;62162;-80
2023/03/22 01:14:18;;;;;;;;;0.00;0.00;;;;;;;;5103589;27;61734;-80
2023/03/22 01:16:44;;;;;;;;;2.75;1.00;;;;;;;;5103428;27;62218;-79
2023/03/22 01:19:09;;;;;;;;;2.50;1.00;;;;;;;;5102892;27;61774;-79
2023/03/22 01:21:34;;;;;;;;;1.00;1.00;;;;;;;;5102879;27;61772;-80
2023/03/22 01:24:00;;;;;;;;;1.00;1.00;;;;;;;;5101377;27;63428;-80
2023/03/22 01:26:25;;;;;;;;;1.00;1.00;;;;;;;;5102506;27;61904;-80
2023/03/22 01:28:50;;;;;;;;;2.75;2.00;;;;;;;;5103262;27;61893;-79
2023/03/22 01:31:16;;;;;;;;;2.25;1.25;;;;;;;;5104052;27;61708;-80
2023/03/22 01:33:41;;;;;;;;;1.00;0.00;;;;;;;;5101711;27;63627;-80
2023/03/22 01:36:06;;;;;;;;;1.00;1.00;;;;;;;;5100854;27;61910;-80
2023/03/22 01:38:32;;;;;;;;;1.25;1.25;;;;;;;;5103533;27;61728;-79
2023/03/22 01:40:58;;;;;;;;;1.00;1.00;;;;;;;;5103898;27;61765;-79
2023/03/22 01:43:24;;;;;;;;;1.00;1.00;;;;;;;;5101834;27;63498;-79
2023/03/22 01:45:50;;;;;;;;;0.25;0.25;;;;;;;;5102041;27;61828;-80
2023/03/22 01:48:18;;;;;;;;;1.75;1.75;;;;;;;;5103685;27;61973;-80
2023/03/22 01:50:47;;;;;;;;;1.50;1.50;;;;;;;;5102840;27;61700;-79
2023/03/22 01:53:13;;;;;;;;;1.50;0.75;;;;;;;;5101487;27;63422;-79
2023/03/22 01:55:38;;;;;;;;;1.75;1.00;;;;;;;;5103509;27;61753;-79
2023/03/22 01:58:04;;;;;;;;;1.00;1.00;;;;;;;;5103574;27;61746;-79
2023/03/22 02:00:29;;;;;;;;;2.50;0.75;;;;;;;;5100751;27;61768;-80
2023/03/22 02:02:55;;;;;;;;;1.75;1.00;;;;;;;;5102628;27;61760;-79
2023/03/22 02:05:21;;;;;;;;;1.75;1.00;;;;;;;;5102016;27;62073;-79
2023/03/22 02:07:47;;;;;;;;;1.00;1.00;;;;;;;;5102367;27;61838;-79
2023/03/22 02:10:20;;;;;;;;;1.00;1.00;;;;;;;;5103309;27;61665;-79
2023/03/22 02:13:11;;;;;;;;;2.00;2.00;;;;;;;;5101267;27;64206;-79
2023/03/22 02:15:39;;;;;;;;;1.75;1.00;;;;;;;;5101742;27;61855;-79
2023/03/22 02:18:05;;;;;;;;;3.00;0.00;;;;;;;;5102668;27;61756;-79
2023/03/22 02:20:54;;;;;;;;;0.00;0.00;;;;;;;;5102117;27;61888;-79
2023/03/22 02:23:25;;;;;;;;;0.00;0.00;;;;;;;;5102678;27;61925;-80
2023/03/22 02:26:06;;;;;;;;;3.50;0.75;;;;;;;;5101057;27;61788;-79
2023/03/22 02:28:34;;;;;;;;;1.00;1.00;;;;;;;;5103194;27;61769;-79
2023/03/22 02:30:59;;;;;;;;;1.00;1.00;;;;;;;;5103314;27;61695;-79
2023/03/22 02:33:24;;;;;;;;;1.00;1.00;;;;;;;;5102397;27;61969;-79
2023/03/22 02:36:10;;;;;;;;;1.75;1.75;;;;;;;;5101507;27;61785;-80
2023/03/22 02:38:57;;;;;;;;;1.00;1.00;;;;;;;;5101459;27;61696;-79
2023/03/22 02:41:38;;;;;;;;;1.00;1.00;;;;;;;;5101619;27;62463;-80
2023/03/22 02:44:08;;;;;;;;;0.00;0.00;;;;;;;;5101891;27;61990;-80
2023/03/22 02:46:42;;;;;;;;;1.00;1.00;;;;;;;;5101720;27;61774;-81
2023/03/22 02:49:19;;;;;;;;;2.00;0.00;;;;;;;;5101461;27;61784;-80
2023/03/22 02:51:48;;;;;;;;;1.00;1.00;;;;;;;;5103042;27;62593;-80
2023/03/22 02:54:27;;;;;;;;;2.00;1.25;;;;;;;;5101674;27;63186;-80
2023/03/22 02:56:56;;;;;;;;;1.00;1.00;;;;;;;;5101322;27;61734;-80
2023/03/22 02:59:23;;;;;;;;;1.00;1.00;;;;;;;;5101968;27;61905;-80
2023/03/22 03:01:54;;;;;;;;;4.00;1.00;;;;;;;;5102920;27;61770;-80
2023/03/22 03:04:21;;;;;;;;;2.00;1.00;;;;;;;;5101792;27;62798;-80
2023/03/22 03:06:47;;;;;;;;;1.00;0.00;;;;;;;;5101288;27;61814;-80
2023/03/22 03:09:17;;;;;;;;;1.50;1.00;;;;;;;;5102384;27;61743;-80
2023/03/22 03:11:46;;;;;;;;;0.25;0.25;;;;;;;;5103470;27;62035;-80
2023/03/22 03:14:19;;;;;;;;;4.00;1.00;;;;;;;;5104249;27;64189;-80
2023/03/22 03:16:45;;;;;;;;;0.00;0.00;;;;;;;;5105769;27;61930;-80
2023/03/22 03:19:16;;;;;;;;;3.00;0.00;;;;;;;;5087977;27;61768;-80
2023/03/22 03:21:53;;;;;;;;;2.00;0.00;;;;;;;;5106401;27;62080;-80
2023/03/22 03:24:21;;;;;;;;;1.50;1.00;;;;;;;;5086636;27;64592;-80
2023/03/22 03:27:02;;;;;;;;;2.00;0.25;;;;;;;;5087170;27;61934;-80
2023/03/22 03:29:31;;;;;;;;;4.00;1.00;;;;;;;;5105342;27;61890;-80
2023/03/22 03:32:08;;;;;;;;;4.50;1.00;;;;;;;;5106411;27;62098;-80
2023/03/22 03:34:40;;;;;;;;;1.25;1.00;;;;;;;;5103058;27;62878;-80
2023/03/22 03:37:08;;;;;;;;;1.50;1.00;;;;;;;;5065835;28;61978;-80
2023/03/22 03:39:36;;;;;;;;;1.00;1.00;;;;;;;;5066709;28;61932;-80
2023/03/22 03:42:02;;;;;;;;;1.50;1.50;;;;;;;;5085417;28;61847;-80
2023/03/22 03:44:29;;;;;;;;;0.00;0.00;;;;;;;;5066186;28;64065;-80
2023/03/22 03:46:55;;;;;;;;;1.00;1.00;;;;;;;;5085422;28;61830;-80
2023/03/22 03:49:21;;;;;;;;;2.00;0.75;;;;;;;;5085268;28;61827;-80
2023/03/22 03:51:54;;;;;;;;;0.50;0.50;;;;;;;;5085577;28;61750;-80
2023/03/22 03:54:20;;;;;;;;;1.00;1.00;;;;;;;;5066028;28;63338;-80
2023/03/22 03:56:48;;;;;;;;;5.00;1.00;;;;;;;;5084296;28;61807;-80
2023/03/22 03:59:14;;;;;;;;;3.00;0.00;;;;;;;;5084755;28;61835;-80
2023/03/22 04:01:40;;;;;;;;;2.25;1.00;;;;;;;;5066707;28;61828;-80
2023/03/22 04:04:06;;;;;;;;;2.00;2.00;;;;;;;;5065874;28;63613;-80
2023/03/22 04:06:33;;;;;;;;;1.75;1.00;;;;;;;;5084986;28;61728;-80
2023/03/22 04:09:00;;;;;;;;;0.75;0.75;;;;;;;;5066534;28;62225;-80
2023/03/22 04:11:27;;;;;;;;;0.00;0.00;;;;;;;;5084882;28;62077;-81
2023/03/22 04:13:52;;;;;;;;;0.50;0.50;;;;;;;;5084070;28;62466;-80
2023/03/22 04:16:18;;;;;;;;;2.75;0.25;;;;;;;;5066252;28;61935;-80
2023/03/22 04:18:43;;;;;;;;;3.75;1.25;;;;;;;;5101335;27;62056;-80
2023/03/22 04:21:10;;;;;;;;;0.50;0.00;;;;;;;;5105493;27;61868;-80
2023/03/22 04:23:36;;;;;;;;;1.25;0.00;;;;;;;;5103243;27;61848;-80
2023/03/22 04:26:01;;;;;;;;;0.00;0.00;;;;;;;;5103259;27;61881;-80
2023/03/22 04:28:26;;;;;;;;;2.00;0.75;;;;;;;;5104981;27;61960;-80
2023/03/22 04:30:52;;;;;;;;;0.00;0.00;;;;;;;;5103241;27;61726;-80
2023/03/22 04:33:18;;;;;;;;;1.00;0.00;;;;;;;;5102974;27;63489;-80
2023/03/22 04:35:45;;;;;;;;;0.00;0.00;;;;;;;;5103179;27;61719;-80
2023/03/22 04:38:10;;;;;;;;;8.75;0.00;;;;;;;;5103509;27;61836;-80
2023/03/22 04:40:37;;;;;;;;;0.00;0.00;;;;;;;;5104173;27;61944;-80
2023/03/22 04:43:03;;;;;;;;;1.50;0.00;;;;;;;;5102922;27;64526;-80
2023/03/22 04:45:31;;;;;;;;;0.00;0.00;;;;;;;;5104525;27;61822;-80
2023/03/22 04:47:56;;;;;;;;;0.75;0.25;;;;;;;;5103009;27;61884;-80
2023/03/22 04:50:21;;;;;;;;;0.25;0.25;;;;;;;;5105112;27;62053;-80
2023/03/22 04:52:47;;;;;;;;;0.00;0.00;;;;;;;;5104142;27;62059;-80
2023/03/22 04:55:12;;;;;;;;;0.00;0.00;;;;;;;;5103653;27;61855;-80
2023/03/22 04:57:37;;;;;;;;;0.00;0.00;;;;;;;;5103473;27;62013;-80
2023/03/22 05:00:07;;;;;;;;;0.00;0.00;;;;;;;;5104165;27;62119;-80
2023/03/22 05:02:32;;;;;;;;;1.00;0.00;;;;;;;;5102639;27;64162;-80
2023/03/22 05:04:57;;;;;;;;;0.00;0.00;;;;;;;;5104208;27;61997;-80
2023/03/22 05:07:23;;;;;;;;;0.25;0.00;;;;;;;;5104583;27;61829;-80
2023/03/22 05:09:48;;;;;;;;;4.25;3.00;;;;;;;;5102194;27;61897;-80
2023/03/22 05:12:13;;;;;;;;;0.00;0.00;;;;;;;;5103614;27;61901;-80
2023/03/22 05:14:39;;;;;;;;;0.50;0.50;;;;;;;;5104442;27;61825;-80
2023/03/22 05:17:04;;;;;;;;;0.00;0.00;;;;;;;;5102826;27;61828;-80
2023/03/22 05:19:30;;;;;;;;;0.25;0.00;;;;;;;;5104469;27;62125;-80
2023/03/22 05:21:56;;;;;;;;;1.00;1.00;;;;;;;;5084854;27;63608;-80
2023/03/22 05:24:22;;;;;;;;;2.00;1.00;;;;;;;;5084812;27;61906;-80
2023/03/22 05:26:52;;;;;;;;;0.00;0.00;;;;;;;;5104175;27;61757;-80
2023/03/22 05:29:17;;;;;;;;;2.50;0.00;;;;;;;;5085788;27;61899;-80
2023/03/22 05:31:43;;;;;;;;;1.50;0.00;;;;;;;;5085273;27;63623;-80
2023/03/22 05:34:08;;;;;;;;;1.75;0.50;;;;;;;;5103328;27;61813;-80
2023/03/22 05:36:37;;;;;;;;;1.00;1.00;;;;;;;;5076152;27;61764;-80
2023/03/22 05:39:03;;;;;;;;;0.00;0.00;;;;;;;;5103656;27;61777;-80
2023/03/22 05:41:30;;;;;;;;;3.00;0.00;;;;;;;;5085038;27;63658;-80
2023/03/22 05:43:56;;;;;;;;;0.00;0.00;;;;;;;;5085271;27;61886;-80
2023/03/22 05:46:21;;;;;;;;;0.50;0.50;;;;;;;;5103992;27;61913;-80
2023/03/22 05:48:46;;;;;;;;;2.50;1.50;;;;;;;;5085574;27;61888;-80
2023/03/22 05:51:16;;;;;;;;;2.00;0.00;;;;;;;;5084326;27;63428;-79
2023/03/22 05:53:42;;;;;;;;;2.25;0.25;;;;;;;;5103050;27;61980;-80
2023/03/22 05:56:08;;;;;;;;;1.00;1.00;;;;;;;;5103372;27;61731;-80
2023/03/22 05:58:34;;;;;;;;;5.00;0.75;;;;;;;;5085616;27;62007;-80
2023/03/22 06:01:06;;;;;;;;;0.00;0.00;;;;;;;;5083920;27;63708;-79
2023/03/22 06:03:32;;;;;;;;;3.00;0.00;;;;;;;;5103577;27;61886;-81
2023/03/22 06:05:57;;;;;;;;;1.50;1.00;;;;;;;;5084805;27;61883;-80
2023/03/22 06:08:22;;;;;;;;;4.00;0.00;;;;;;;;5103756;27;61938;-79
2023/03/22 06:10:49;;;;;;;;;0.00;0.00;;;;;;;;5084139;27;63592;-79
2023/03/22 06:13:15;;;;;;;;;0.00;0.00;;;;;;;;5085255;27;61962;-79
2023/03/22 06:15:40;;;;;;;;;0.75;0.75;;;;;;;;5084614;27;61851;-79
2023/03/22 06:18:05;;;;;;;;;4.00;0.75;;;;;;;;5103296;27;61760;-80
2023/03/22 06:20:31;;;;;;;;;1.00;1.00;;;;;;;;5065334;28;63460;-85
2023/03/22 06:22:56;;;;;;;;;1.00;0.00;;;;;;;;5082785;28;61825;-79
2023/03/22 06:25:22;;;;;;;;;2.00;1.00;;;;;;;;5064571;28;61886;-82
2023/03/22 06:27:47;;;;;;;;;2.75;1.00;;;;;;;;5083420;28;61802;-81
2023/03/22 06:30:13;;;;;;;;;0.25;0.00;;;;;;;;5063173;28;63449;-78
2023/03/22 06:32:38;;;;;;;;;1.75;0.00;;;;;;;;5087938;27;61981;-79
2023/03/22 06:35:05;;;;;;;;;2.75;0.25;;;;;;;;5082310;27;61902;-79
2023/03/22 06:37:31;;;;;;;;;4.25;0.25;;;;;;;;5064293;28;61805;-79
2023/03/22 06:39:56;;;;;;;;;1.75;1.75;;;;;;;;5063351;28;63579;-80
2023/03/22 06:42:22;;;;;;;;;1.75;1.75;;;;;;;;5063919;28;61782;-79
2023/03/22 06:44:47;;;;;;;;;3.25;1.25;;;;;;;;5086694;27;61755;-79
2023/03/22 06:47:12;;;;;;;;;2.00;2.00;;;;;;;;5073055;27;61836;-79
2023/03/22 06:49:38;;;;;;;;;1.00;1.00;;;;;;;;5071653;28;63543;-79
2023/03/22 06:52:03;;;;;;;;;3.00;1.00;;;;;;;;5085726;28;61772;-79
2023/03/22 06:54:28;;;;;;;;;5.25;1.50;;;;;;;;5076591;27;62222;-79
2023/03/22 06:56:54;;;;;;;;;2.00;2.00;;;;;;;;5106341;27;61736;-79
2023/03/22 06:59:19;;;;;;;;;4.25;0.75;;;;;;;;5085789;27;63594;-79
2023/03/22 07:01:45;;;;;;;;;1.50;1.50;;;;;;;;5077685;28;61822;-79
2023/03/22 07:04:10;;;;;;;;;2.75;2.00;;;;;;;;5058020;28;62692;-79
2023/03/22 07:06:35;;;;;;;;;6.00;2.75;;;;;;;;5067962;28;61747;-80
2023/03/22 07:09:01;;;;;;;;;3.00;1.50;;;;;;;;5084953;28;62249;-79
2023/03/22 07:11:26;;;;;;;;;3.00;2.00;;;;;;;;5067290;28;61941;-79
2023/03/22 07:13:52;;;;;;;;;2.75;2.75;;;;;;;;5067477;28;61966;-80
2023/03/22 07:16:18;;;;;;;;;3.00;3.00;;;;;;;;5086151;28;62416;-79
2023/03/22 07:18:43;;;;;;;;;2.00;2.00;;;;;;;;5097168;27;63478;-79
2023/03/22 07:21:09;;;;;;;;;2.75;1.75;;;;;;;;5104510;27;62005;-79
2023/03/22 07:23:34;;;;;;;;;3.00;3.00;;;;;;;;5104280;27;61801;-78
2023/03/22 07:25:59;;;;;;;;;2.00;2.00;;;;;;;;5105835;27;62232;-76
2023/03/22 07:28:26;;;;;;;;;2.50;2.50;;;;;;;;5105095;27;63087;-76
2023/03/22 07:31:05;;;;;;;;;3.75;2.00;;;;;;;;5105514;27;62041;-75
2023/03/22 07:33:30;;;;;;;;;5.50;1.00;;;;;;;;5103666;27;62087;-75
2023/03/22 07:35:56;;;;;;;;;2.75;2.75;;;;;;;;5103480;27;61879;-75
2023/03/22 07:38:21;;;;;;;;;2.25;1.00;;;;;;;;5105103;27;62294;-75
2023/03/22 07:40:46;;;;;;;;;3.75;2.75;;;;;;;;5105232;27;61885;-75
2023/03/22 07:43:12;;;;;;;;;3.50;1.00;;;;;;;;5105653;27;61738;-75
2023/03/22 07:45:37;;;;;;;;;2.00;1.00;;;;;;;;5107083;27;61792;-75
2023/03/22 07:48:03;;;;;;;;;9.50;2.00;;;;;;;;5112832;27;62158;-75
2023/03/22 07:50:28;;;;;;;;;2.50;2.00;;;;;;;;5107449;27;62171;-75
2023/03/22 07:52:53;;;;;;;;;3.00;3.00;;;;;;;;5105724;27;62292;-75
2023/03/22 07:55:19;;;;;;;;;4.00;2.25;;;;;;;;5104915;27;61803;-75
2023/03/22 07:57:44;;;;;;;;;2.50;2.00;;;;;;;;5104082;27;62900;-75
2023/03/22 08:00:10;;;;;;;;;5.75;2.75;;;;;;;;5102668;27;61830;-76
2023/03/22 08:02:37;;;;;;;;;2.00;1.00;;;;;;;;5099599;27;61943;-76
2023/03/22 08:05:02;;;;;;;;;1.00;1.00;;;;;;;;5083833;28;61838;-76
2023/03/22 08:07:29;;;;;;;;;3.50;1.00;;;;;;;;5083940;27;61952;-75
2023/03/22 08:09:54;;;;;;;;;3.00;1.00;;;;;;;;5084636;27;61983;-75
2023/03/22 08:12:20;;;;;;;;;2.75;1.25;;;;;;;;5090576;27;61870;-75
2023/03/22 08:14:49;;;;;;;;;2.00;1.75;;;;;;;;5104784;27;61929;-75
2023/03/22 08:17:14;;;;;;;;;2.00;2.00;;;;;;;;5104138;27;62111;-75
2023/03/22 08:19:40;;;;;;;;;3.25;2.25;;;;;;;;5104630;27;61922;-76
2023/03/22 08:22:05;;;;;;;;;2.00;2.00;;;;;;;;5103820;27;61975;-75
2023/03/22 08:24:31;;;;;;;;;3.00;2.25;;;;;;;;5103543;27;62160;-75
2023/03/22 08:26:56;;;;;;;;;3.00;2.00;;;;;;;;5104349;27;61773;-75
2023/03/22 08:29:22;;;;;;;;;5.00;2.50;;;;;;;;5103081;27;61706;-76
2023/03/22 08:31:47;;;;;;;;;3.00;3.00;;;;;;;;5104597;27;61683;-75
2023/03/22 08:34:12;;;;;;;;;2.75;1.50;;;;;;;;5103672;27;61799;-75
2023/03/22 08:36:37;;;;;;;;;2.50;2.00;;;;;;;;5103993;27;62853;-75
2023/03/22 08:39:03;;;;;;;;;4.00;1.25;;;;;;;;5103930;27;61710;-76
2023/03/22 08:41:29;;;;;;;;;3.00;1.25;;;;;;;;5104815;27;61672;-75
2023/03/22 08:43:55;;;;;;;;;1.00;1.00;;;;;;;;5103363;27;61765;-76
2023/03/22 08:46:20;;;;;;;;;2.00;2.00;;;;;;;;5102199;27;64264;-75
2023/03/22 08:48:49;;;;;;;;;3.50;2.00;;;;;;;;5104642;27;61716;-75
2023/03/22 08:51:16;;;;;;;;;1.50;1.50;;;;;;;;5104673;27;62047;-75
2023/03/22 08:53:41;;;;;;;;;3.00;2.00;;;;;;;;5103411;27;61783;-75
2023/03/22 08:56:07;;;;;;;;;4.00;2.00;;;;;;;;5103605;27;62749;-75
2023/03/22 08:58:32;;;;;;;;;3.00;2.00;;;;;;;;5104516;27;61852;-75
2023/03/22 09:00:57;;;;;;;;;3.75;2.00;;;;;;;;5103457;27;62106;-75
2023/03/22 09:03:23;;;;;;;;;1.50;1.00;;;;;;;;5088522;27;61791;-75
2023/03/22 09:05:49;;;;;;;;;3.00;2.00;;;;;;;;5083243;27;61906;-76
2023/03/22 09:08:14;;;;;;;;;4.75;2.50;;;;;;;;5082473;28;62002;-75
2023/03/22 09:10:40;;;;;;;;;4.00;4.00;;;;;;;;5090771;27;61814;-77
2023/03/22 09:13:05;;;;;;;;;1.50;1.00;;;;;;;;5104600;27;62113;-76
2023/03/22 09:15:31;;;;;;;;;1.50;0.75;;;;;;;;5101468;27;65152;-77
2023/03/22 09:17:56;;;;;;;;;4.25;1.25;;;;;;;;5102435;27;61849;-76
2023/03/22 09:20:24;;;;;;;;;3.00;3.00;;;;;;;;5103404;27;61755;-76
2023/03/22 09:22:49;;;;;;;;;1.50;1.00;;;;;;;;5103705;27;62013;-76
2023/03/22 09:25:15;;;;;;;;;3.75;2.00;;;;;;;;5101071;27;63567;-77
2023/03/22 09:27:40;;;;;;;;;3.00;1.75;;;;;;;;5103384;27;61933;-78
2023/03/22 09:30:06;;;;;;;;;3.00;2.75;;;;;;;;5101242;27;62219;-78
2023/03/22 09:32:31;;;;;;;;;3.75;1.00;;;;;;;;5104170;27;61696;-79
2023/03/22 09:34:57;;;;;;;;;2.50;1.00;;;;;;;;5103226;27;61857;-79
2023/03/22 09:37:29;;;;;;;;;1.00;1.00;;;;;;;;5103044;27;61868;-78
2023/03/22 09:39:55;;;;;;;;;3.00;1.50;;;;;;;;5101983;27;61775;-79
2023/03/22 09:42:23;;;;;;;;;2.50;1.25;;;;;;;;5102870;27;61907;-78
2023/03/22 09:44:49;;;;;;;;;2.00;2.00;;;;;;;;5100837;27;62862;-78
2023/03/22 09:47:20;;;;;;;;;4.00;2.00;;;;;;;;5103731;27;61898;-78
2023/03/22 09:49:47;;;;;;;;;2.75;2.75;;;;;;;;5103749;27;61779;-79
2023/03/22 09:52:13;;;;;;;;;4.50;3.00;;;;;;;;5102458;27;62084;-79
2023/03/22 09:54:40;;;;;;;;;1.75;1.50;;;;;;;;5102636;27;61848;-79
2023/03/22 09:57:08;;;;;;;;;4.25;1.50;;;;;;;;5102165;27;62045;-79
2023/03/22 09:59:39;;;;;;;;;3.00;2.00;;;;;;;;5101607;27;61913;-79
2023/03/22 10:02:23;;;;;;;;;2.50;2.00;;;;;;;;5098630;27;61744;-83
2023/03/22 10:04:54;;;;;;;;;6.25;2.25;;;;;;;;5086696;27;63738;-83
2023/03/22 10:07:29;;;;;;;;;4.00;2.25;;;;;;;;5102219;27;62086;-83
2023/03/22 10:10:16;;;;;;;;;2.25;2.25;;;;;;;;5102061;27;61984;-83
2023/03/22 10:12:44;;;;;;;;;5.00;3.00;;;;;;;;5103614;27;61818;-83
2023/03/22 10:15:12;;;;;;;;;2.75;1.25;;;;;;;;5101224;27;63542;-83
2023/03/22 10:17:38;;;;;;;;;4.00;3.00;;;;;;;;5103268;27;62011;-83
2023/03/22 10:20:07;;;;;;;;;3.00;3.00;;;;;;;;5101803;27;62094;-83
2023/03/22 10:22:39;;;;;;;;;3.00;2.50;;;;;;;;5101655;27;62053;-83
2023/03/22 10:25:06;;;;;;;;;2.00;2.00;;;;;;;;5100758;27;64641;-83
2023/03/22 10:27:32;;;;;;;;;2.25;1.75;;;;;;;;5100377;27;61788;-83
2023/03/22 10:30:05;;;;;;;;;2.50;2.50;;;;;;;;5101333;27;61931;-83
2023/03/22 10:32:38;;;;;;;;;2.50;2.50;;;;;;;;5101954;27;61695;-83
2023/03/22 10:35:04;;;;;;;;;2.00;1.00;;;;;;;;5100871;27;63407;-83
2023/03/22 10:37:33;;;;;;;;;2.50;2.00;;;;;;;;5101651;27;61831;-83
2023/03/22 10:40:06;;;;;;;;;3.00;2.00;;;;;;;;5101216;27;61972;-83
2023/03/22 10:42:34;;;;;;;;;2.50;2.50;;;;;;;;5103058;27;61816;-83
2023/03/22 10:45:02;;;;;;;;;2.75;2.25;;;;;;;;5101312;27;63266;-83
2023/03/22 10:47:36;;;;;;;;;1.50;1.50;;;;;;;;5101274;27;61696;-83
2023/03/22 10:50:03;;;;;;;;;3.25;2.75;;;;;;;;5101846;27;61981;-82
2023/03/22 10:52:29;;;;;;;;;1.50;1.50;;;;;;;;5103193;27;61943;-82
2023/03/22 10:54:56;;;;;;;;;3.25;2.50;;;;;;;;5100728;27;63584;-82
2023/03/22 10:57:21;;;;;;;;;3.50;3.50;;;;;;;;5100809;27;61771;-83
2023/03/22 10:59:48;;;;;;;;;4.00;2.00;;;;;;;;5102200;27;61725;-83
2023/03/22 11:02:23;;;;;;;;;4.75;3.75;;;;;;;;5101164;27;61721;-81
2023/03/22 11:04:50;;;;;;;;;4.00;2.00;;;;;;;;5100595;27;62134;-81
2023/03/22 11:07:16;;;;;;;;;5.50;2.50;;;;;;;;5100703;27;61952;-81
2023/03/22 11:09:41;;;;;;;;;3.75;2.00;;;;;;;;5101542;27;61850;-81
2023/03/22 11:12:11;;;;;;;;;3.50;3.00;;;;;;;;5100401;27;61746;-81
2023/03/22 11:14:41;;;;;;;;;5.50;2.00;;;;;;;;5101872;27;61828;-83
2023/03/22 11:17:27;;;;;;;;;5.25;4.00;;;;;;;;5101128;27;61916;-81
2023/03/22 11:19:54;;;;;;;;;2.50;1.50;;;;;;;;5083264;27;61787;-83
2023/03/22 11:22:19;;;;;;;;;3.50;1.75;;;;;;;;5084425;27;62137;-82
2023/03/22 11:24:47;;;;;;;;;2.25;2.25;;;;;;;;5082519;27;63588;-82
2023/03/22 11:27:23;;;;;;;;;5.75;4.00;;;;;;;;5084062;27;61807;-79
2023/03/22 11:29:50;;;;;;;;;2.50;1.50;;;;;;;;5101274;27;61699;-78
2023/03/22 11:32:20;;;;;;;;;7.00;3.00;;;;;;;;5102611;27;61748;-81
2023/03/22 11:34:46;;;;;;;;;6.75;5.00;;;;;;;;5086351;27;64681;-81
2023/03/22 11:37:15;;;;;;;;;6.25;2.75;;;;;;;;5071543;28;61788;-83
2023/03/22 11:39:44;;;;;;;;;3.00;2.50;;;;;;;;5049193;28;61828;-80
2023/03/22 11:42:17;;;;;;;;;2.75;2.00;;;;;;;;5085481;28;62095;-81
2023/03/22 11:44:43;;;;;;;;;2.00;2.00;;;;;;;;5066415;28;63609;-80
2023/03/22 11:47:10;;;;;;;;;3.00;2.00;;;;;;;;5066736;28;61750;-80
2023/03/22 11:49:47;;;;;;;;;3.25;2.00;;;;;;;;5084972;28;62051;-80
2023/03/22 11:52:22;;;;;;;;;5.00;3.00;;;;;;;;5067137;28;62063;-81
2023/03/22 11:54:48;;;;;;;;;6.00;2.75;;;;;;;;5064937;28;64068;-83
2023/03/22 11:57:20;;;;;;;;;3.50;3.50;;;;;;;;5066906;28;62113;-82
2023/03/22 11:59:57;;;;;;;;;4.50;3.00;;;;;;;;5066092;28;61808;-83
2023/03/22 12:02:28;;;;;;;;;1.25;1.25;;;;;;;;5063535;28;61677;-81
2023/03/22 12:05:16;;;;;;;;;2.75;2.50;;;;;;;;5045692;28;63820;-78
2023/03/22 12:07:42;;;;;;;;;3.00;3.00;;;;;;;;5064390;28;61927;-80
2023/03/22 12:10:17;;;;;;;;;1.75;1.00;;;;;;;;5070898;27;61914;-81
2023/03/22 12:12:52;;;;;;;;;3.00;2.00;;;;;;;;5081470;27;62183;-83
2023/03/22 12:15:22;;;;;;;;;7.25;3.00;;;;;;;;5070750;27;64655;-81
2023/03/22 12:18:01;;;;;;;;;2.00;2.00;;;;;;;;5084052;27;62115;-79
2023/03/22 12:20:30;;;;;;;;;3.50;2.00;;;;;;;;5101304;27;61964;-78
2023/03/22 12:22:56;;;;;;;;;2.00;2.00;;;;;;;;5095319;27;61965;-81
2023/03/22 12:25:27;;;;;;;;;3.00;2.75;;;;;;;;5099260;27;62697;-81
2023/03/22 12:27:59;;;;;;;;;4.00;3.00;;;;;;;;5096168;27;61885;-82
2023/03/22 12:30:26;;;;;;;;;3.50;2.50;;;;;;;;5105238;27;62086;-75
2023/03/22 12:33:10;;;;;;;;;1.75;1.00;;;;;;;;5100613;27;61723;-79
2023/03/22 12:35:38;;;;;;;;;1.50;1.50;;;;;;;;5100615;27;63915;-83
2023/03/22 12:38:18;;;;;;;;;1.50;1.50;;;;;;;;5100488;27;62028;-84
2023/03/22 12:40:51;;;;;;;;;3.00;2.00;;;;;;;;5093185;27;61914;-84
2023/03/22 12:43:22;;;;;;;;;5.50;2.00;;;;;;;;5095167;27;61969;-82
2023/03/22 12:45:52;;;;;;;;;2.25;2.25;;;;;;;;5092069;27;61795;-80
2023/03/22 12:48:20;;;;;;;;;4.00;2.00;;;;;;;;5090040;27;61900;-79
2023/03/22 12:50:49;;;;;;;;;3.00;1.25;;;;;;;;5095252;27;61887;-79
2023/03/22 12:53:15;;;;;;;;;2.75;2.75;;;;;;;;5090506;27;61744;-78
2023/03/22 12:55:45;;;;;;;;;2.25;1.25;;;;;;;;5091123;27;63331;-78
2023/03/22 12:58:20;;;;;;;;;6.25;2.00;;;;;;;;5092012;27;61912;-79
2023/03/22 13:00:54;;;;;;;;;5.00;3.00;;;;;;;;5090762;27;61920;-78
2023/03/22 13:03:56;;;;;;;;;3.00;2.00;;;;;;;;5089039;27;61816;-78
2023/03/22 13:06:30;;;;;;;;;1.75;1.75;;;;;;;;5077939;27;62180;-80
2023/03/22 13:09:16;;;;;;;;;6.50;2.25;;;;;;;;5088145;27;62000;-80
2023/03/22 13:12:07;;;;;;;;;3.00;2.00;;;;;;;;5094335;27;61980;-79
2023/03/22 13:14:51;;;;;;;;;3.00;2.00;;;;;;;;5099762;27;61965;-78
2023/03/22 13:17:23;;;;;;;;;1.75;1.75;;;;;;;;5101231;27;63550;-76
2023/03/22 13:19:52;;;;;;;;;3.75;2.50;;;;;;;;5095818;27;61787;-80
2023/03/22 13:22:20;;;;;;;;;3.75;3.75;;;;;;;;5097507;27;62023;-80
2023/03/22 13:25:08;;;;;;;;;5.50;2.00;;;;;;;;5097942;27;62322;-79
2023/03/22 13:27:54;;;;;;;;;4.50;2.00;;;;;;;;5091292;27;63615;-79
2023/03/22 13:30:20;;;;;;;;;3.00;2.50;;;;;;;;5095970;27;61873;-80
2023/03/22 13:32:54;;;;;;;;;3.00;2.00;;;;;;;;5097997;27;62505;-79
2023/03/22 13:35:22;;;;;;;;;2.00;2.00;;;;;;;;5094496;27;62050;-80
2023/03/22 13:37:49;;;;;;;;;2.50;2.25;;;;;;;;5096541;27;62253;-80
2023/03/22 13:40:35;;;;;;;;;3.50;3.50;;;;;;;;5094199;27;61929;-80
2023/03/22 13:43:26;;;;;;;;;4.00;4.00;;;;;;;;5099193;27;62115;-80
2023/03/22 13:46:10;;;;;;;;;4.25;3.00;;;;;;;;5097817;27;62288;-79
2023/03/22 13:48:50;;;;;;;;;3.00;3.00;;;;;;;;5098641;27;63022;-80
2023/03/22 13:51:22;;;;;;;;;3.00;3.00;;;;;;;;5099549;27;62283;-80
2023/03/22 13:53:55;;;;;;;;;3.75;2.00;;;;;;;;5099800;27;61952;-80
2023/03/22 13:56:33;;;;;;;;;5.00;3.00;;;;;;;;5097901;27;62165;-79
2023/03/22 13:59:00;;;;;;;;;3.50;2.00;;;;;;;;5097886;27;62880;-80
2023/03/22 14:01:30;;;;;;;;;3.75;3.00;;;;;;;;5102383;27;61912;-80
2023/03/22 14:04:00;;;;;;;;;7.00;3.25;;;;;;;;5102905;27;61966;-79
2023/03/22 14:06:34;;;;;;;;;2.00;2.00;;;;;;;;5101093;27;62157;-80
2023/03/22 14:09:01;;;;;;;;;3.00;2.25;;;;;;;;5098351;27;64073;-80
2023/03/22 14:11:41;;;;;;;;;3.75;2.75;;;;;;;;5102104;27;61971;-79
2023/03/22 14:14:11;;;;;;;;;3.00;3.00;;;;;;;;5096860;27;61838;-80
2023/03/22 14:16:40;;;;;;;;;4.50;3.00;;;;;;;;5101048;27;62083;-80
2023/03/22 14:19:07;;;;;;;;;4.25;3.00;;;;;;;;5100460;27;63633;-80
2023/03/22 14:21:37;;;;;;;;;3.50;3.00;;;;;;;;5101323;27;61782;-80
2023/03/22 14:24:03;;;;;;;;;4.75;3.75;;;;;;;;5101414;27;61858;-80
2023/03/22 14:26:34;;;;;;;;;3.25;3.25;;;;;;;;5101282;27;61937;-80
2023/03/22 14:29:08;;;;;;;;;7.25;4.75;;;;;;;;5100786;27;64044;-80
2023/03/22 14:31:33;;;;;;;;;3.00;3.00;;;;;;;;5102823;27;61808;-80
2023/03/22 14:34:00;;;;;;;;;4.25;4.00;;;;;;;;5100999;27;61988;-80
2023/03/22 14:36:30;;;;;;;;;4.00;4.00;;;;;;;;5101010;27;61741;-80
2023/03/22 14:38:56;;;;;;;;;4.00;3.25;;;;;;;;5101807;27;61901;-80
2023/03/22 14:41:23;;;;;;;;;3.00;3.00;;;;;;;;5099551;27;61899;-79
2023/03/22 14:43:55;;;;;;;;;3.25;3.00;;;;;;;;5100935;27;61689;-80
2023/03/22 14:46:24;;;;;;;;;3.00;3.00;;;;;;;;5101304;27;61919;-80
2023/03/22 14:48:51;;;;;;;;;7.00;3.50;;;;;;;;5100483;27;64609;-80
2023/03/22 14:51:22;;;;;;;;;5.00;3.00;;;;;;;;5101283;27;61888;-80